createdAt,value
2022-08-17T00:01:51.889Z,100216.22
2022-08-17T00:04:22.193Z,100219.41
2022-08-17T00:06:52.267Z,100217.53
2022-08-17T00:09:21.789Z,100196.88
2022-08-17T00:12:42.930Z,100214.41
2022-08-17T00:14:46.680Z,100220.78
2022-08-17T00:17:16.132Z,100213.00
2022-08-17T00:19:45.404Z,100209.03
2022-08-17T00:22:32.277Z,100216.22
2022-08-17T00:25:05.874Z,100230.19
2022-08-17T00:27:35.282Z,100209.84
2022-08-17T00:30:07.712Z,100227.19
2022-08-17T00:33:23.382Z,100229.28
2022-08-17T00:35:38.837Z,100226.59
2022-08-17T00:38:11.098Z,100229.78
2022-08-17T00:40:47.978Z,100234.38
2022-08-17T00:43:37.121Z,100235.47
2022-08-17T00:46:16.840Z,100242.16
2022-08-17T00:48:46.931Z,100239.75
2022-08-17T00:51:25.295Z,100217.81
2022-08-17T00:54:20.516Z,100211.22
2022-08-17T00:57:12.160Z,100241.56
2022-08-17T00:59:50.567Z,100240.47
2022-08-17T01:02:41.479Z,100236.66
2022-08-17T01:05:21.598Z,100242.06
2022-08-17T01:07:54.188Z,100240.47
2022-08-17T01:10:58.798Z,100240.25
2022-08-17T01:13:21.329Z,100230.59
2022-08-17T01:16:14.030Z,100244.63
2022-08-17T01:18:43.520Z,100247.34
2022-08-17T01:21:20.650Z,100243.06
2022-08-17T01:23:50.216Z,100248.44
2022-08-17T01:26:20.706Z,100253.53
2022-08-17T01:28:53.792Z,100245.13
2022-08-17T01:31:27.271Z,100252.13
2022-08-17T01:33:56.654Z,100241.63
2022-08-17T01:36:26.254Z,100222.81
2022-08-17T01:38:57.086Z,100249.66
2022-08-17T01:41:26.760Z,100245.63
2022-08-17T01:44:06.937Z,100237.78
2022-08-17T01:46:38.265Z,100227.38
2022-08-17T01:49:15.267Z,100241.13
2022-08-17T01:51:44.603Z,100228.06
2022-08-17T01:54:17.135Z,100244.34
2022-08-17T01:56:50.904Z,100237.06
2022-08-17T01:59:21.877Z,100237.16
2022-08-17T02:01:51.885Z,100222.38
2022-08-17T02:04:21.120Z,100229.75
2022-08-17T02:06:53.299Z,100229.75
2022-08-17T02:09:27.187Z,100210.56
2022-08-17T02:12:04.772Z,100229.94
2022-08-17T02:14:50.227Z,100210.69
2022-08-17T02:17:19.767Z,100224.72
2022-08-17T02:19:49.018Z,100224.38
2022-08-17T02:22:19.504Z,100231.75
2022-08-17T02:24:59.440Z,100232.03
2022-08-17T02:27:31.327Z,100232.03
2022-08-17T02:30:00.610Z,100225.66
2022-08-17T02:32:29.817Z,100220.56
2022-08-17T02:34:59.919Z,100236.03
2022-08-17T02:37:30.068Z,100234.13
2022-08-17T02:40:00.752Z,100225.41
2022-08-17T02:42:35.171Z,100232.19
2022-08-17T02:45:12.375Z,100206.88
2022-08-17T02:47:42.690Z,100212.97
2022-08-17T02:50:14.409Z,100219.00
2022-08-17T02:52:47.477Z,100229.88
2022-08-17T02:55:30.162Z,100234.47
2022-08-17T02:57:59.460Z,100231.50
2022-08-17T03:00:36.588Z,100207.75
2022-08-17T03:03:07.548Z,100233.09
2022-08-17T03:05:39.599Z,100230.38
2022-08-17T03:08:11.726Z,100226.88
2022-08-17T03:10:44.164Z,100211.13
2022-08-17T03:13:15.710Z,100226.56
2022-08-17T03:15:46.785Z,100233.59
2022-08-17T03:18:21.951Z,100209.53
2022-08-17T03:20:58.960Z,100214.13
2022-08-17T03:23:29.709Z,100221.78
2022-08-17T03:26:00.684Z,100220.41
2022-08-17T03:28:30.182Z,100223.09
2022-08-17T03:30:59.686Z,100214.00
2022-08-17T03:33:28.892Z,100218.00
2022-08-17T03:35:58.355Z,100213.38
2022-08-17T03:38:29.129Z,100213.06
2022-08-17T03:41:08.994Z,100205.09
2022-08-17T03:43:38.650Z,100196.69
2022-08-17T03:46:28.273Z,100190.22
2022-08-17T03:49:24.450Z,100191.47
2022-08-17T03:52:12.387Z,100181.81
2022-08-17T03:55:00.233Z,100184.00
2022-08-17T03:57:30.410Z,100185.91
2022-08-17T04:00:01.030Z,100170.94
2022-08-17T04:02:33.716Z,100178.19
2022-08-17T04:05:02.978Z,100178.50
2022-08-17T04:07:33.253Z,100161.91
2022-08-17T04:10:02.866Z,100171.31
2022-08-17T04:12:49.444Z,100171.00
2022-08-17T04:15:19.815Z,100165.78
2022-08-17T04:17:49.583Z,100171.38
2022-08-17T04:20:20.989Z,100164.88
2022-08-17T04:23:03.410Z,100141.44
2022-08-17T04:25:36.396Z,100145.59
2022-08-17T04:28:07.669Z,100149.47
2022-08-17T04:30:46.412Z,100149.28
2022-08-17T04:33:18.545Z,100142.91
2022-08-17T04:35:50.495Z,100148.19
2022-08-17T04:38:22.726Z,100109.44
2022-08-17T04:41:10.292Z,100140.19
2022-08-17T04:43:41.955Z,100141.81
2022-08-17T04:46:20.605Z,100132.41
2022-08-17T04:48:51.969Z,100136.72
2022-08-17T04:51:24.795Z,100142.13
2022-08-17T04:53:56.668Z,100142.13
2022-08-17T04:56:27.532Z,100123.78
2022-08-17T04:58:59.821Z,100143.22
2022-08-17T05:01:31.696Z,100136.53
2022-08-17T05:04:33.066Z,100137.94
2022-08-17T05:06:57.705Z,100128.06
2022-08-17T05:09:27.469Z,100132.06
2022-08-17T05:11:56.659Z,100113.13
2022-08-17T05:14:32.951Z,100133.78
2022-08-17T05:17:04.146Z,100113.44
2022-08-17T05:19:38.676Z,100121.41
2022-08-17T05:22:08.165Z,100114.09
2022-08-17T05:24:39.852Z,100110.88
2022-08-17T05:27:15.893Z,100084.47
2022-08-17T05:29:48.462Z,100092.50
2022-08-17T05:32:38.034Z,100078.16
2022-08-17T05:35:08.356Z,100092.38
2022-08-17T05:37:37.539Z,100084.09
2022-08-17T05:40:07.644Z,100074.09
2022-08-17T05:42:36.920Z,100080.47
2022-08-17T05:45:07.300Z,100065.69
2022-08-17T05:47:36.655Z,100071.28
2022-08-17T05:50:10.438Z,100058.41
2022-08-17T05:53:13.733Z,100047.59
2022-08-17T05:56:04.241Z,100045.09
2022-08-17T05:58:35.623Z,100058.59
2022-08-17T06:01:29.659Z,100051.88
2022-08-17T06:04:35.346Z,100051.56
2022-08-17T06:07:24.066Z,100043.91
2022-08-17T06:10:07.957Z,100056.19
2022-08-17T06:13:06.070Z,100062.69
2022-08-17T06:16:03.672Z,100066.81
2022-08-17T06:19:13.796Z,100064.88
2022-08-17T06:21:47.095Z,100059.34
2022-08-17T06:24:45.259Z,100057.91
2022-08-17T06:27:25.738Z,100045.84
2022-08-17T06:30:10.440Z,100048.53
2022-08-17T06:32:45.882Z,100036.09
2022-08-17T06:35:19.732Z,100057.53
2022-08-17T06:38:01.366Z,100065.75
2022-08-17T06:40:56.533Z,100095.44
2022-08-17T06:43:25.802Z,100092.09
2022-08-17T06:45:59.795Z,100148.22
2022-08-17T06:48:48.344Z,100184.69
2022-08-17T06:51:33.086Z,100187.22
2022-08-17T06:54:09.087Z,100172.13
2022-08-17T06:57:07.767Z,100160.47
2022-08-17T07:00:15.689Z,100175.22
2022-08-17T07:03:07.248Z,100167.25
2022-08-17T07:05:48.564Z,100162.84
2022-08-17T07:08:46.774Z,100154.56
2022-08-17T07:11:20.518Z,100117.47
2022-08-17T07:14:17.156Z,100145.97
2022-08-17T07:16:52.936Z,100140.03
2022-08-17T07:19:24.664Z,100147.41
2022-08-17T07:21:53.844Z,100129.59
2022-08-17T07:24:34.502Z,100124.00
2022-08-17T07:27:28.968Z,100113.84
2022-08-17T07:30:21.053Z,100074.34
2022-08-17T07:33:00.497Z,100088.84
2022-08-17T07:35:44.198Z,100113.19
2022-08-17T07:38:24.820Z,100111.06
2022-08-17T07:40:58.897Z,100095.69
2022-08-17T07:43:53.494Z,100110.91
2022-08-17T07:46:54.165Z,100129.06
2022-08-17T07:49:27.202Z,100151.44
2022-08-17T07:52:48.379Z,100134.84
2022-08-17T07:54:55.696Z,100113.91
2022-08-17T07:57:39.454Z,100122.88
2022-08-17T08:00:18.143Z,100130.63
2022-08-17T08:02:59.897Z,100160.63
2022-08-17T08:05:49.656Z,100154.69
2022-08-17T08:08:44.534Z,100144.72
2022-08-17T08:11:16.853Z,100153.59
2022-08-17T08:13:47.275Z,100157.22
2022-08-17T08:16:28.850Z,100166.28
2022-08-17T08:19:03.402Z,100151.03
2022-08-17T08:21:49.493Z,100140.75
2022-08-17T08:24:44.299Z,100131.44
2022-08-17T08:27:46.723Z,100163.31
2022-08-17T08:30:26.869Z,100160.88
2022-08-17T08:33:28.279Z,100153.09
2022-08-17T08:36:00.793Z,100134.44
2022-08-17T08:38:46.672Z,100124.38
2022-08-17T08:41:18.897Z,100113.72
2022-08-17T08:44:07.316Z,100157.38
2022-08-17T08:46:50.309Z,100142.13
2022-08-17T08:50:05.005Z,100136.94
2022-08-17T08:52:52.073Z,100136.94
2022-08-17T08:55:58.501Z,100115.78
2022-08-17T08:58:52.446Z,100097.81
2022-08-17T09:01:34.671Z,100093.81
2022-08-17T09:04:29.977Z,100126.97
2022-08-17T09:07:29.364Z,100121.16
2022-08-17T09:09:59.445Z,100133.13
2022-08-17T09:12:48.902Z,100135.03
2022-08-17T09:15:28.853Z,100139.31
2022-08-17T09:19:00.068Z,100132.97
2022-08-17T09:21:35.461Z,100141.81
2022-08-17T09:24:26.270Z,100149.13
2022-08-17T09:27:03.033Z,100145.72
2022-08-17T09:29:36.488Z,100152.91
2022-08-17T09:32:14.048Z,100135.88
2022-08-17T09:34:56.207Z,100128.97
2022-08-17T09:37:35.803Z,100159.59
2022-08-17T09:40:25.300Z,100131.25
2022-08-17T09:43:06.555Z,100147.31
2022-08-17T09:46:07.624Z,100160.38
2022-08-17T09:48:46.947Z,100148.31
2022-08-17T09:51:24.376Z,100163.09
2022-08-17T09:53:53.642Z,100145.94
2022-08-17T09:56:46.224Z,100159.91
2022-08-17T09:59:39.095Z,100167.19
2022-08-17T10:02:41.808Z,100163.69
2022-08-17T10:05:42.635Z,100128.00
2022-08-17T10:08:33.370Z,100158.59
2022-08-17T10:11:20.505Z,100139.63
2022-08-17T10:14:36.899Z,100145.03
2022-08-17T10:17:13.994Z,100158.91
2022-08-17T10:19:56.585Z,100157.91
2022-08-17T10:23:02.379Z,100164.59
2022-08-17T10:26:23.590Z,100152.81
2022-08-17T10:28:59.475Z,100153.00
2022-08-17T10:31:51.883Z,100143.66
2022-08-17T10:34:42.315Z,100139.34
2022-08-17T10:37:38.807Z,100140.34
2022-08-17T10:40:17.061Z,100161.19
2022-08-17T10:43:04.122Z,100168.78
2022-08-17T10:45:51.373Z,100179.56
2022-08-17T10:48:42.063Z,100183.66
2022-08-17T10:51:39.298Z,100189.88
2022-08-17T10:54:09.373Z,100185.84
2022-08-17T10:56:45.296Z,100188.03
2022-08-17T10:59:37.135Z,100196.63
2022-08-17T11:02:21.346Z,100191.25
2022-08-17T11:05:08.207Z,100166.00
2022-08-17T11:08:29.009Z,100205.53
2022-08-17T11:11:14.856Z,100206.22
2022-08-17T11:14:07.491Z,100214.69
2022-08-17T11:16:43.043Z,100212.00
2022-08-17T11:19:42.690Z,100203.53
2022-08-17T11:22:48.024Z,100219.59
2022-08-17T11:25:18.518Z,100232.78
2022-08-17T11:27:54.869Z,100236.56
2022-08-17T11:30:43.614Z,100256.22
2022-08-17T11:33:46.144Z,100259.72
2022-08-17T11:36:34.715Z,100234.34
2022-08-17T11:39:08.956Z,100260.81
2022-08-17T11:41:52.250Z,100254.94
2022-08-17T11:44:42.064Z,100247.72
2022-08-17T11:47:38.403Z,100252.53
2022-08-17T11:50:36.923Z,100257.94
2022-08-17T11:53:06.707Z,100250.72
2022-08-17T11:55:44.349Z,100264.91
2022-08-17T11:58:31.975Z,100243.25
2022-08-17T12:01:02.219Z,100270.28
2022-08-17T12:03:38.094Z,100276.00
2022-08-17T12:06:24.243Z,100275.19
2022-08-17T12:09:14.453Z,100280.28
2022-08-17T12:11:56.359Z,100279.50
2022-08-17T12:15:07.975Z,100276.06
2022-08-17T12:17:40.691Z,100277.38
2022-08-17T12:20:37.128Z,100278.97
2022-08-17T12:23:36.987Z,100260.31
2022-08-17T12:26:23.243Z,100268.00
2022-08-17T12:29:02.116Z,100273.69
2022-08-17T12:31:49.028Z,100273.16
2022-08-17T12:34:24.471Z,100282.75
2022-08-17T12:37:00.335Z,100284.16
2022-08-17T12:39:34.024Z,100280.97
2022-08-17T12:42:04.249Z,100289.56
2022-08-17T12:44:42.591Z,100280.25
2022-08-17T12:47:22.545Z,100290.16
2022-08-17T12:49:54.940Z,100257.84
2022-08-17T12:52:27.260Z,100296.31
2022-08-17T12:54:58.465Z,100286.44
2022-08-17T12:57:36.008Z,100308.19
2022-08-17T13:00:17.018Z,100289.50
2022-08-17T13:02:55.487Z,100320.09
2022-08-17T13:05:37.190Z,100321.47
2022-08-17T13:08:17.487Z,100324.44
2022-08-17T13:10:57.808Z,100313.47
2022-08-17T13:13:36.088Z,100315.13
2022-08-17T13:16:20.291Z,100338.13
2022-08-17T13:18:59.671Z,100337.72
2022-08-17T13:21:31.791Z,100350.03
2022-08-17T13:24:13.292Z,100352.72
2022-08-17T13:26:50.345Z,100335.88
2022-08-17T13:29:20.696Z,100349.22
2022-08-17T13:31:56.260Z,100344.72
2022-08-17T13:35:12.574Z,100342.78
2022-08-17T13:37:35.900Z,100348.09
2022-08-17T13:40:11.746Z,100335.88
2022-08-17T13:42:55.555Z,100348.41
2022-08-17T13:45:35.176Z,100313.38
2022-08-17T13:48:13.864Z,100343.69
2022-08-17T13:50:51.653Z,100335.94
2022-08-17T13:53:52.382Z,100364.56
2022-08-17T13:56:48.013Z,100352.78
2022-08-17T13:59:52.976Z,100348.69
2022-08-17T14:02:20.337Z,100353.28
2022-08-17T14:04:50.619Z,100351.91
2022-08-17T14:07:21.990Z,100342.19
2022-08-17T14:09:51.151Z,100345.69
2022-08-17T14:12:23.060Z,100329.91
2022-08-17T14:14:59.681Z,100332.03
2022-08-17T14:17:38.094Z,100328.25
2022-08-17T14:20:10.875Z,100321.25
2022-08-17T14:22:44.961Z,100322.66
2022-08-17T14:25:16.813Z,100322.88
2022-08-17T14:27:52.916Z,100307.91
2022-08-17T14:30:29.894Z,100314.28
2022-08-17T14:32:59.998Z,100314.28
2022-08-17T14:35:30.690Z,100310.00
2022-08-17T14:38:00.353Z,100300.00
2022-08-17T14:40:29.721Z,100294.66
2022-08-17T14:42:59.353Z,100300.28
2022-08-17T14:45:32.618Z,100280.38
2022-08-17T14:48:10.380Z,100300.59
2022-08-17T14:50:45.547Z,100282.69
2022-08-17T14:53:17.805Z,100298.97
2022-08-17T14:55:48.707Z,100279.78
2022-08-17T14:58:19.374Z,100294.44
2022-08-17T15:00:52.186Z,100303.84
2022-08-17T15:03:21.526Z,100294.44
2022-08-17T15:05:50.700Z,100287.47
2022-08-17T15:08:20.845Z,100289.34
2022-08-17T15:10:54.344Z,100274.09
2022-08-17T15:13:29.587Z,100274.91
2022-08-17T15:16:09.914Z,100280.19
2022-08-17T15:18:39.406Z,100281.78
2022-08-17T15:21:11.229Z,100287.16
2022-08-17T15:23:41.251Z,100276.41
2022-08-17T15:26:13.583Z,100275.81
2022-08-17T15:28:42.862Z,100269.72
2022-08-17T15:31:12.594Z,100275.59
2022-08-17T15:33:42.205Z,100244.03
2022-08-17T15:36:11.658Z,100247.25
2022-08-17T15:38:44.494Z,100258.06
2022-08-17T15:41:16.699Z,100249.16
2022-08-17T15:43:48.128Z,100239.38
2022-08-17T15:46:23.206Z,100254.56
2022-08-17T15:48:54.823Z,100254.84
2022-08-17T15:51:29.715Z,100243.56
2022-08-17T15:54:19.423Z,100247.56
2022-08-17T15:56:52.782Z,100258.34
2022-08-17T15:59:22.094Z,100249.75
2022-08-17T16:03:07.866Z,100239.66
2022-08-17T16:04:46.073Z,100246.25
2022-08-17T16:07:21.865Z,100240.28
2022-08-17T16:09:53.911Z,100243.25
2022-08-17T16:12:23.725Z,100235.09
2022-08-17T16:14:54.604Z,100238.47
2022-08-17T16:17:38.798Z,100244.66
2022-08-17T16:20:20.638Z,100240.88
2022-08-17T16:22:51.511Z,100230.69
2022-08-17T16:25:53.268Z,100226.13
2022-08-17T16:28:16.366Z,100220.72
2022-08-17T16:30:46.654Z,100208.63
2022-08-17T16:33:18.113Z,100205.75
2022-08-17T16:35:50.136Z,100198.84
2022-08-17T16:38:20.029Z,100202.56
2022-08-17T16:40:49.319Z,100194.88
2022-08-17T16:43:18.632Z,100196.25
2022-08-17T16:45:52.003Z,100209.25
2022-08-17T16:48:21.455Z,100212.22
2022-08-17T16:51:03.390Z,100212.75
2022-08-17T16:53:33.979Z,100194.06
2022-08-17T16:56:03.260Z,100212.75
2022-08-17T16:58:32.508Z,100209.84
2022-08-17T17:01:02.035Z,100186.16
2022-08-17T17:03:32.623Z,100210.66
2022-08-17T17:06:15.441Z,100200.94
2022-08-17T17:08:58.096Z,100203.16
2022-08-17T17:11:35.421Z,100184.19
2022-08-17T17:14:29.608Z,100198.84
2022-08-17T17:17:15.822Z,100202.25
2022-08-17T17:20:02.661Z,100202.56
2022-08-17T17:22:49.748Z,100181.97
2022-08-17T17:25:22.658Z,100202.25
2022-08-17T17:28:06.597Z,100186.50
2022-08-17T17:31:03.748Z,100197.97
2022-08-17T17:33:49.524Z,100190.19
2022-08-17T17:36:34.288Z,100170.13
2022-08-17T17:39:14.033Z,100178.13
2022-08-17T17:41:57.506Z,100156.34
2022-08-17T17:44:35.642Z,100192.09
2022-08-17T17:47:05.890Z,100173.13
2022-08-17T17:49:41.940Z,100177.00
2022-08-17T17:52:15.519Z,100184.50
2022-08-17T17:55:15.038Z,100155.25
2022-08-17T17:57:59.669Z,100188.28
2022-08-17T18:00:53.799Z,100185.69
2022-08-17T18:03:47.063Z,100191.28
2022-08-17T18:06:22.264Z,100193.97
2022-08-17T18:09:04.377Z,100198.56
2022-08-17T18:12:04.784Z,100197.88
2022-08-17T18:14:37.629Z,100174.00
2022-08-17T18:17:08.224Z,100197.78
2022-08-17T18:19:41.256Z,100160.53
2022-08-17T18:22:19.959Z,100196.75
2022-08-17T18:24:57.179Z,100169.50
2022-08-17T18:27:31.819Z,100168.50
2022-08-17T18:30:21.310Z,100187.66
2022-08-17T18:32:50.895Z,100188.97
2022-08-17T18:35:29.702Z,100189.78
2022-08-17T18:38:24.799Z,100183.97
2022-08-17T18:41:02.068Z,100187.97
2022-08-17T18:43:52.903Z,100171.97
2022-08-17T18:46:37.801Z,100192.56
2022-08-17T18:49:11.824Z,100190.34
2022-08-17T18:51:44.441Z,100188.56
2022-08-17T18:54:21.165Z,100191.53
2022-08-17T18:56:54.867Z,100193.34
2022-08-17T18:59:25.818Z,100192.56
2022-08-17T19:02:38.675Z,100183.69
2022-08-17T19:05:28.396Z,100189.06
2022-08-17T19:08:26.503Z,100176.97
2022-08-17T19:11:23.655Z,100180.19
2022-08-17T19:14:17.936Z,100171.59
2022-08-17T19:17:12.138Z,100170.22
2022-08-17T19:19:58.821Z,100162.22
2022-08-17T19:23:21.017Z,100168.63
2022-08-17T19:25:56.832Z,100163.25
2022-08-17T19:28:48.519Z,100158.94
2022-08-17T19:31:27.390Z,100160.81
2022-08-17T19:33:57.488Z,100153.56
2022-08-17T19:36:39.413Z,100157.34
2022-08-17T19:39:47.715Z,100154.97
2022-08-17T19:42:38.457Z,100160.56
2022-08-17T19:45:18.234Z,100138.97
2022-08-17T19:48:04.704Z,100161.63
2022-08-17T19:50:43.079Z,100158.94
2022-08-17T19:53:36.659Z,100150.66
2022-08-17T19:56:41.286Z,100121.56
2022-08-17T19:59:13.458Z,100134.38
2022-08-17T20:01:49.837Z,100151.25
2022-08-17T20:04:19.102Z,100159.53
2022-08-17T20:06:54.168Z,100143.78
2022-08-17T20:09:35.803Z,100130.25
2022-08-17T20:12:11.735Z,100146.47
2022-08-17T20:15:09.996Z,100142.75
2022-08-17T20:17:48.488Z,100148.03
2022-08-17T20:20:29.930Z,100157.44
2022-08-17T20:23:27.424Z,100129.13
2022-08-17T20:26:01.537Z,100144.28
2022-08-17T20:28:36.313Z,100127.75
2022-08-17T20:31:42.756Z,100147.28
2022-08-17T20:34:37.303Z,100107.59
2022-08-17T20:37:07.835Z,100146.47
2022-08-17T20:39:51.305Z,100147.06
2022-08-17T20:42:23.311Z,100147.06
2022-08-17T20:45:03.917Z,100147.13
2022-08-17T20:48:14.614Z,100150.34
2022-08-17T20:50:49.108Z,100154.91
2022-08-17T20:53:50.349Z,100167.78
2022-08-17T20:56:47.693Z,100158.59
2022-08-17T20:59:26.933Z,100162.09
2022-08-17T21:02:18.689Z,100169.38
2022-08-17T21:04:55.656Z,100145.31
2022-08-17T21:07:54.417Z,100164.78
2022-08-17T21:10:23.794Z,100135.19
2022-08-17T21:13:39.842Z,100166.97
2022-08-17T21:16:28.150Z,100177.44
2022-08-17T21:19:24.250Z,100180.13
2022-08-17T21:21:59.350Z,100180.94
2022-08-17T21:24:45.075Z,100183.13
2022-08-17T21:27:20.353Z,100183.94
2022-08-17T21:30:16.264Z,100189.31
2022-08-17T21:33:22.148Z,100190.13
2022-08-17T21:36:13.441Z,100187.44
2022-08-17T21:39:10.080Z,100183.47
2022-08-17T21:41:55.707Z,100193.91
2022-08-17T21:44:40.772Z,100195.00
2022-08-17T21:47:25.474Z,100175.78
2022-08-17T21:49:56.434Z,100195.28
2022-08-17T21:52:28.048Z,100192.88
2022-08-17T21:55:03.819Z,100194.50
2022-08-17T21:57:34.564Z,100178.69
2022-08-17T22:00:07.434Z,100196.09
2022-08-17T22:02:38.835Z,100192.06
2022-08-17T22:05:11.679Z,100195.56
2022-08-17T22:07:51.986Z,100195.84
2022-08-17T22:10:40.538Z,100203.06
2022-08-17T22:13:20.923Z,100199.31
2022-08-17T22:15:54.832Z,100206.06
2022-08-17T22:18:30.244Z,100207.94
2022-08-17T22:21:02.850Z,100190.34
2022-08-17T22:24:01.868Z,100187.94
2022-08-17T22:27:01.952Z,100212.25
2022-08-17T22:30:29.120Z,100216.03
2022-08-17T22:32:58.926Z,100216.81
2022-08-17T22:35:31.067Z,100174.34
2022-08-17T22:38:20.084Z,100212.78
2022-08-17T22:40:51.948Z,100226.50
2022-08-17T22:43:27.302Z,100216.38
2022-08-17T22:46:02.287Z,100236.78
2022-08-17T22:48:32.425Z,100234.63
2022-08-17T22:51:12.635Z,100232.16
2022-08-17T22:54:13.778Z,100240.47
2022-08-17T22:57:24.154Z,100233.19
2022-08-17T22:59:57.053Z,100230.22
2022-08-17T23:02:30.687Z,100208.00
2022-08-17T23:05:14.117Z,100196.03
2022-08-17T23:07:44.797Z,100228.81
2022-08-17T23:10:16.006Z,100233.13
2022-08-17T23:12:45.498Z,100233.13
2022-08-17T23:15:20.409Z,100230.41
2022-08-17T23:17:49.928Z,100200.50
2022-08-17T23:20:19.662Z,100208.66
2022-08-17T23:22:52.221Z,100216.38
2022-08-17T23:25:33.359Z,100208.59
2022-08-17T23:28:04.557Z,100212.28
2022-08-17T23:30:36.521Z,100203.00
2022-08-17T23:33:08.369Z,100210.09
2022-08-17T23:35:39.317Z,100210.09
2022-08-17T23:38:15.308Z,100205.50
2022-08-17T23:40:44.697Z,100211.31
2022-08-17T23:43:24.560Z,100198.44
2022-08-17T23:46:00.882Z,100218.00
2022-08-17T23:48:35.807Z,100213.41
2022-08-17T23:51:11.783Z,100203.50
2022-08-17T23:53:46.015Z,100213.41
2022-08-17T23:56:16.002Z,100207.63
2022-08-17T23:58:46.614Z,100214.03
